KBUR/BUR METAR and TAF weather

Enter ICAO airport designator
Station Type Date Time Source
KBUR METAR 2022/01/28 07:53 UTC NOAA

KBUR 280753Z 02003KT 10SM CLR 10/M06 A3022 RMK AO2 SLP224 T01001056 402220056 $


Station Type Date Time Source
KBUR Decoded METAR 2022/01/28 07:53 UTC NOAA

BURBANK-GLENDALE-PASADENA, CA, United States (KBUR) 34-12N 118-22W 217M
Jan 28, 2022 - 02:53 AM EST / 2022.01.28 0753 UTC
Wind: from the NNE (020 degrees) at 3 MPH (3 KT):0
Visibility: 10 mile(s):0
Sky conditions: clear
Temperature: 50.0 F (10.0 C)
Dew Point: 21.9 F (-5.6 C)
Relative Humidity: 32%
Pressure (altimeter): 30.22 in. Hg (1023 hPa)
ob: KBUR 280753Z 02003KT 10SM CLR 10/M06 A3022 RMK AO2 SLP224 T01001056 402220056
cycle: 8

Station Type Date Time Source
KBUR TAF 2022/01/28 18:45 UTC NOAA

TAF KBUR 281742Z 2818/2918 02003KT P6SM SKC
FM281900 02008KT P6SM SCT200
FM290200 VRB03KT P6SM SCT200
FM291200 00000KT P6SM SCT200

Example: see airport list